createdAt,value
2018-10-06T00:00:15.632Z,13.54
2018-10-06T00:02:44.221Z,13.74
2018-10-06T00:05:12.867Z,13.87
2018-10-06T00:07:41.516Z,14.04
2018-10-06T00:10:10.174Z,13.64
2018-10-06T00:12:39.401Z,13.17
2018-10-06T00:15:08.268Z,12.77
2018-10-06T00:17:37.606Z,12.43
2018-10-06T00:20:06.985Z,12.17
2018-10-06T00:22:36.360Z,11.92
2018-10-06T00:25:05.383Z,11.63
2018-10-06T00:27:33.957Z,11.49
2018-10-06T00:30:02.545Z,11.41
2018-10-06T00:32:31.280Z,11.23
2018-10-06T00:34:59.834Z,11.25
2018-10-06T00:37:29.000Z,11.36
2018-10-06T00:39:57.515Z,11.49
2018-10-06T00:42:26.831Z,11.67
2018-10-06T00:44:56.213Z,12.00
2018-10-06T00:47:25.978Z,12.23
2018-10-06T00:49:55.259Z,12.42
2018-10-06T00:52:24.070Z,12.58
2018-10-06T00:54:52.648Z,12.37
2018-10-06T00:57:21.245Z,12.07
2018-10-06T00:59:49.903Z,11.85
2018-10-06T01:02:18.521Z,11.61
2018-10-06T01:04:47.437Z,11.53
2018-10-06T01:07:16.676Z,11.49
2018-10-06T01:09:45.369Z,11.33
2018-10-06T01:12:14.306Z,11.27
2018-10-06T01:14:42.842Z,11.36
2018-10-06T01:17:11.417Z,11.30
2018-10-06T01:19:40.051Z,11.32
2018-10-06T01:22:11.084Z,11.32
2018-10-06T01:24:40.256Z,11.45
2018-10-06T01:27:08.859Z,11.74
2018-10-06T01:29:37.372Z,12.03
2018-10-06T01:32:06.100Z,12.19
2018-10-06T01:34:35.118Z,12.44
2018-10-06T01:37:03.700Z,12.40
2018-10-06T01:39:32.659Z,12.39
2018-10-06T01:42:01.656Z,12.16
2018-10-06T01:44:30.307Z,11.90
2018-10-06T01:46:58.965Z,11.65
2018-10-06T01:49:27.746Z,11.42
2018-10-06T01:51:56.349Z,11.15
2018-10-06T01:54:25.435Z,10.95
2018-10-06T01:56:54.061Z,10.84
2018-10-06T01:59:22.564Z,10.68
2018-10-06T02:01:51.251Z,10.70
2018-10-06T02:04:24.230Z,10.81
2018-10-06T02:06:53.422Z,10.86
2018-10-06T02:09:22.030Z,11.10
2018-10-06T02:11:50.915Z,11.50
2018-10-06T02:14:19.488Z,11.78
2018-10-06T02:16:48.939Z,11.97
2018-10-06T02:19:17.565Z,12.14
2018-10-06T02:21:46.215Z,11.79
2018-10-06T02:24:14.795Z,11.37
2018-10-06T02:26:43.401Z,11.19
2018-10-06T02:29:12.159Z,11.02
2018-10-06T02:31:40.820Z,10.99
2018-10-06T02:34:09.431Z,10.82
2018-10-06T02:36:38.038Z,10.59
2018-10-06T02:39:07.625Z,10.45
2018-10-06T02:41:36.304Z,10.55
2018-10-06T02:44:05.005Z,10.71
2018-10-06T02:46:33.694Z,10.85
2018-10-06T02:49:02.365Z,11.11
2018-10-06T02:51:30.989Z,11.36
2018-10-06T02:54:00.045Z,11.55
2018-10-06T02:56:28.830Z,11.76
2018-10-06T02:58:57.439Z,11.47
2018-10-06T03:01:26.032Z,11.02
2018-10-06T03:03:55.396Z,10.65
2018-10-06T03:06:24.524Z,10.35
2018-10-06T03:08:53.065Z,10.17
2018-10-06T03:11:21.592Z,10.17
2018-10-06T03:13:50.735Z,10.45
2018-10-06T03:16:19.415Z,10.53
2018-10-06T03:18:48.159Z,10.68
2018-10-06T03:21:16.659Z,10.74
2018-10-06T03:23:45.981Z,11.07
2018-10-06T03:26:14.530Z,11.35
2018-10-06T03:28:43.180Z,11.43
2018-10-06T03:31:11.791Z,11.56
2018-10-06T03:33:41.604Z,11.22
2018-10-06T03:36:10.244Z,10.81
2018-10-06T03:38:38.841Z,10.51
2018-10-06T03:41:08.151Z,10.23
2018-10-06T03:43:36.720Z,9.91
2018-10-06T03:46:05.965Z,9.76
2018-10-06T03:48:34.655Z,9.64
2018-10-06T03:51:03.226Z,9.74
2018-10-06T03:53:31.856Z,9.89
2018-10-06T03:56:01.087Z,10.10
2018-10-06T03:58:29.884Z,10.43
2018-10-06T04:00:58.569Z,10.76
2018-10-06T04:03:27.954Z,10.94
2018-10-06T04:05:56.595Z,11.28
2018-10-06T04:08:25.829Z,11.28
2018-10-06T04:10:54.455Z,10.89
2018-10-06T04:13:23.136Z,10.53
2018-10-06T04:15:51.749Z,10.25
2018-10-06T04:18:20.331Z,10.00
2018-10-06T04:20:49.186Z,9.93
2018-10-06T04:23:17.671Z,9.85
2018-10-06T04:25:46.526Z,9.99
2018-10-06T04:28:15.078Z,10.13
2018-10-06T04:30:43.844Z,10.32
2018-10-06T04:33:12.336Z,10.69
2018-10-06T04:35:41.056Z,10.98
2018-10-06T04:38:09.632Z,11.15
2018-10-06T04:40:38.748Z,11.35
2018-10-06T04:43:07.447Z,11.42
2018-10-06T04:45:36.134Z,10.99
2018-10-06T04:48:04.725Z,10.45
2018-10-06T04:50:33.528Z,10.02
2018-10-06T04:53:02.243Z,9.92
2018-10-06T04:55:30.825Z,9.81
2018-10-06T04:57:59.419Z,9.85
2018-10-06T05:00:28.072Z,9.97
2018-10-06T05:02:57.584Z,10.06
2018-10-06T05:05:26.392Z,10.35
2018-10-06T05:07:56.481Z,10.75
2018-10-06T05:10:26.669Z,11.09
2018-10-06T05:12:56.045Z,11.22
2018-10-06T05:15:24.771Z,11.27
2018-10-06T05:17:54.019Z,11.32
2018-10-06T05:20:22.805Z,10.93
2018-10-06T05:22:51.408Z,10.46
2018-10-06T05:25:19.949Z,10.17
2018-10-06T05:27:48.663Z,10.00
2018-10-06T05:30:17.280Z,9.83
2018-10-06T05:32:46.031Z,9.75
2018-10-06T05:35:14.606Z,9.86
2018-10-06T05:37:43.264Z,10.00
2018-10-06T05:40:11.903Z,10.38
2018-10-06T05:42:40.589Z,10.81
2018-10-06T05:45:09.209Z,11.08
2018-10-06T05:47:37.895Z,11.28
2018-10-06T05:50:07.381Z,11.25
2018-10-06T05:52:36.119Z,11.44
2018-10-06T05:55:05.061Z,11.28
2018-10-06T05:57:33.798Z,10.92
2018-10-06T06:00:02.366Z,10.46
2018-10-06T06:02:30.962Z,10.09
2018-10-06T06:04:59.611Z,9.87
2018-10-06T06:07:28.324Z,9.71
2018-10-06T06:09:57.017Z,9.68
2018-10-06T06:12:26.033Z,9.74
2018-10-06T06:14:54.750Z,9.92
2018-10-06T06:17:23.430Z,10.28
2018-10-06T06:19:52.812Z,10.70
2018-10-06T06:22:21.511Z,11.06
2018-10-06T06:24:50.289Z,11.19
2018-10-06T06:27:19.525Z,11.46
2018-10-06T06:29:48.197Z,11.54
2018-10-06T06:32:19.423Z,11.15
2018-10-06T06:34:47.910Z,10.67
2018-10-06T06:37:16.509Z,10.51
2018-10-06T06:39:45.155Z,10.37
2018-10-06T06:42:13.909Z,10.45
2018-10-06T06:44:42.556Z,10.62
2018-10-06T06:47:11.145Z,10.88
2018-10-06T06:49:40.389Z,11.21
2018-10-06T06:52:09.139Z,11.56
2018-10-06T06:54:37.661Z,11.92
2018-10-06T06:57:06.930Z,12.38
2018-10-06T06:59:35.570Z,12.75
2018-10-06T07:02:04.245Z,13.01
2018-10-06T07:04:33.014Z,13.32
2018-10-06T07:07:01.542Z,13.60
2018-10-06T07:09:30.793Z,13.68
2018-10-06T07:11:59.605Z,13.74
2018-10-06T07:14:28.139Z,13.97
2018-10-06T07:16:57.195Z,14.16
2018-10-06T07:19:26.684Z,14.43
2018-10-06T07:21:56.768Z,14.80
2018-10-06T07:24:26.212Z,15.19
2018-10-06T07:26:54.809Z,15.53
2018-10-06T07:29:23.454Z,16.19
2018-10-06T07:31:51.998Z,17.22
2018-10-06T07:34:20.573Z,17.81
2018-10-06T07:36:49.175Z,17.87
2018-10-06T07:39:17.878Z,17.81
2018-10-06T07:41:46.983Z,17.76
2018-10-06T07:44:15.624Z,17.83
2018-10-06T07:46:44.176Z,17.99
2018-10-06T07:49:13.474Z,18.11
2018-10-06T07:51:42.084Z,18.29
2018-10-06T07:54:10.742Z,18.45
2018-10-06T07:56:39.410Z,18.57
2018-10-06T07:59:07.942Z,18.67
2018-10-06T08:01:37.239Z,18.73
2018-10-06T08:04:05.869Z,19.00
2018-10-06T08:06:34.660Z,19.11
2018-10-06T08:09:03.231Z,19.14
2018-10-06T08:11:32.465Z,19.23
2018-10-06T08:14:01.140Z,19.33
2018-10-06T08:16:29.770Z,19.50
2018-10-06T08:18:58.884Z,19.71
2018-10-06T08:21:28.031Z,20.05
2018-10-06T08:23:57.308Z,20.27
2018-10-06T08:26:26.205Z,20.23
2018-10-06T08:28:55.730Z,20.27
2018-10-06T08:31:24.954Z,20.35
2018-10-06T08:33:53.763Z,20.45
2018-10-06T08:36:22.280Z,20.50
2018-10-06T08:38:50.862Z,20.77
2018-10-06T08:41:19.623Z,21.07
2018-10-06T08:43:48.315Z,21.20
2018-10-06T08:46:17.040Z,21.22
2018-10-06T08:48:46.696Z,21.24
2018-10-06T08:51:15.504Z,21.46
2018-10-06T08:53:44.688Z,21.56
2018-10-06T08:56:13.489Z,21.75
2018-10-06T08:58:42.618Z,21.87
2018-10-06T09:01:11.226Z,21.90
2018-10-06T09:03:39.996Z,21.92
2018-10-06T09:06:09.440Z,22.06
2018-10-06T09:08:39.144Z,22.07
2018-10-06T09:11:08.280Z,21.96
2018-10-06T09:13:38.129Z,21.82
2018-10-06T09:16:07.581Z,21.90
2018-10-06T09:18:36.287Z,22.19
2018-10-06T09:21:04.999Z,22.36
2018-10-06T09:23:34.063Z,22.35
2018-10-06T09:26:02.671Z,22.30
2018-10-06T09:28:32.011Z,22.30
2018-10-06T09:31:00.660Z,22.44
2018-10-06T09:33:29.931Z,22.38
2018-10-06T09:35:58.673Z,22.65
2018-10-06T09:38:27.898Z,22.89
2018-10-06T09:40:57.574Z,22.93
2018-10-06T09:43:26.575Z,22.88
2018-10-06T09:45:55.322Z,22.92
2018-10-06T09:48:23.925Z,23.00
2018-10-06T09:50:52.629Z,23.02
2018-10-06T09:53:21.251Z,22.94
2018-10-06T09:55:49.866Z,22.89
2018-10-06T09:58:18.466Z,22.98
2018-10-06T10:00:52.400Z,22.90
2018-10-06T10:03:26.165Z,23.09
2018-10-06T10:05:55.705Z,23.31
2018-10-06T10:08:24.355Z,23.34
2018-10-06T10:10:52.940Z,23.50
2018-10-06T10:13:22.524Z,23.52
2018-10-06T10:15:51.170Z,23.61
2018-10-06T10:18:19.901Z,23.71
2018-10-06T10:20:48.961Z,23.66
2018-10-06T10:23:17.668Z,23.40
2018-10-06T10:25:46.373Z,23.27
2018-10-06T10:28:15.203Z,23.48
2018-10-06T10:30:43.745Z,23.54
2018-10-06T10:33:12.419Z,23.38
2018-10-06T10:35:41.030Z,23.47
2018-10-06T10:38:09.633Z,23.60
2018-10-06T10:40:38.249Z,23.63
2018-10-06T10:56:28.813Z,23.74
2018-10-06T10:58:57.403Z,23.69
2018-10-06T11:01:26.369Z,23.86
2018-10-06T11:03:55.031Z,23.92
2018-10-06T11:06:23.620Z,24.02
2018-10-06T11:08:53.045Z,24.00
2018-10-06T11:11:21.771Z,23.86
2018-10-06T11:13:50.435Z,23.65
2018-10-06T11:16:19.202Z,23.62
2018-10-06T11:18:49.335Z,23.54
2018-10-06T11:21:18.075Z,23.67
2018-10-06T11:23:46.820Z,23.84
2018-10-06T11:26:16.194Z,24.09
2018-10-06T11:28:44.715Z,24.15
2018-10-06T11:31:13.354Z,24.23
2018-10-06T11:33:41.897Z,24.25
2018-10-06T11:36:10.519Z,24.21
2018-10-06T11:38:39.215Z,24.20
2018-10-06T11:41:08.045Z,24.20
2018-10-06T11:43:36.700Z,24.25
2018-10-06T11:46:05.964Z,24.37
2018-10-06T11:48:34.642Z,24.31
2018-10-06T11:51:03.255Z,24.21
2018-10-06T11:53:31.902Z,24.23
2018-10-06T11:56:00.646Z,24.22
2018-10-06T11:58:29.248Z,24.37
2018-10-06T12:01:01.736Z,24.40
2018-10-06T12:03:30.574Z,24.42
2018-10-06T12:05:59.138Z,24.48
2018-10-06T12:08:28.291Z,24.42
2018-10-06T13:28:34.274Z,24.88
2018-10-06T13:31:03.099Z,24.85
2018-10-06T13:33:32.232Z,24.88
2018-10-06T13:36:01.044Z,25.02
2018-10-06T13:38:29.614Z,25.08
2018-10-06T13:40:59.069Z,25.04
2018-10-06T13:43:27.798Z,24.99
2018-10-06T13:45:56.345Z,24.88
2018-10-06T13:48:25.550Z,24.80
2018-10-06T13:50:54.346Z,24.70
2018-10-06T13:53:22.978Z,24.47
2018-10-06T13:55:51.684Z,24.42
2018-10-06T13:58:20.292Z,24.39
2018-10-06T14:00:50.234Z,24.60
2018-10-06T14:03:18.990Z,24.76
2018-10-06T14:05:47.537Z,24.84
2018-10-06T14:08:16.304Z,24.96
2018-10-06T14:10:44.880Z,24.94
2018-10-06T14:13:13.722Z,24.98
2018-10-06T14:15:42.381Z,25.06
2018-10-06T14:18:11.279Z,25.06
2018-10-06T14:20:40.991Z,24.98
2018-10-06T14:23:09.801Z,25.03
2018-10-06T14:25:38.753Z,25.12
2018-10-06T14:28:08.047Z,25.15
2018-10-06T14:30:36.929Z,25.15
2018-10-06T14:33:05.665Z,25.10
2018-10-06T14:35:34.364Z,25.06
2018-10-06T14:38:02.948Z,25.08
2018-10-06T14:40:31.642Z,25.16
2018-10-06T14:43:00.318Z,25.24
2018-10-06T14:45:29.208Z,25.26
2018-10-06T14:47:58.211Z,25.19
2018-10-06T14:50:27.675Z,25.03
2018-10-06T14:52:56.538Z,25.06
2018-10-06T14:55:25.207Z,25.17
2018-10-06T14:57:54.689Z,25.22
2018-10-06T15:00:25.052Z,25.22
2018-10-06T15:02:54.247Z,25.19
2018-10-06T15:05:23.032Z,25.15
2018-10-06T15:07:58.143Z,24.96
2018-10-06T15:10:26.791Z,24.81
2018-10-06T15:12:56.063Z,24.70
2018-10-06T15:15:25.527Z,24.60
2018-10-06T15:17:54.864Z,24.56
2018-10-06T15:20:23.615Z,24.57
2018-10-06T15:22:52.338Z,24.45
2018-10-06T15:25:20.915Z,24.26
2018-10-06T15:27:50.468Z,24.15
2018-10-06T15:30:20.928Z,24.04
2018-10-06T15:36:04.060Z,23.86
2018-10-06T15:38:32.687Z,23.61
2018-10-06T15:41:01.544Z,23.41
2018-10-06T15:43:30.196Z,23.28
2018-10-06T15:45:58.897Z,23.27
2018-10-06T15:48:27.643Z,23.18
2018-10-06T15:50:56.331Z,23.05
2018-10-06T15:53:25.147Z,22.76
2018-10-06T15:55:54.446Z,22.64
2018-10-06T15:58:23.773Z,22.46
2018-10-06T16:00:52.953Z,22.47
2018-10-06T16:03:21.856Z,22.34
2018-10-06T16:05:50.545Z,22.10
2018-10-06T16:08:19.206Z,21.94
2018-10-06T16:10:47.819Z,21.87
2018-10-06T16:13:18.566Z,21.84
2018-10-06T16:15:47.268Z,21.71
2018-10-06T16:18:15.997Z,21.64
2018-10-06T16:20:44.827Z,21.58
2018-10-06T16:23:13.432Z,21.55
2018-10-06T16:25:42.341Z,21.44
2018-10-06T16:28:11.197Z,21.31
2018-10-06T16:30:39.858Z,21.24
2018-10-06T16:33:08.636Z,21.27
2018-10-06T16:35:37.257Z,20.92
2018-10-06T16:38:05.954Z,20.88
2018-10-06T16:40:35.605Z,20.73
2018-10-06T16:43:05.252Z,20.62
2018-10-06T16:45:34.102Z,20.55
2018-10-06T16:48:03.786Z,20.41
2018-10-06T16:50:32.945Z,20.25
2018-10-06T16:53:01.562Z,20.17
2018-10-06T16:55:30.502Z,19.99
2018-10-06T16:57:59.258Z,19.86
2018-10-06T17:00:27.932Z,19.73
2018-10-06T17:02:56.624Z,19.60
2018-10-06T17:05:25.372Z,19.40
2018-10-06T17:07:54.015Z,19.24
2018-10-06T17:10:22.684Z,19.14
2018-10-06T17:12:52.093Z,19.01
2018-10-06T17:15:20.667Z,18.85
2018-10-06T17:17:50.149Z,19.00
2018-10-06T17:20:19.352Z,19.00
2018-10-06T17:22:48.125Z,18.82
2018-10-06T17:25:17.724Z,18.78
2018-10-06T17:27:46.412Z,18.81
2018-10-06T17:30:14.959Z,18.96
2018-10-06T17:32:43.646Z,18.79
2018-10-06T17:35:12.674Z,18.65
2018-10-06T17:37:41.457Z,18.48
2018-10-06T17:40:10.175Z,18.45
2018-10-06T17:42:38.937Z,18.29
2018-10-06T17:45:07.949Z,18.12
2018-10-06T17:47:37.752Z,18.06
2018-10-06T17:50:07.185Z,17.90
2018-10-06T17:52:36.442Z,17.67
2018-10-06T17:55:05.248Z,17.64
2018-10-06T17:57:33.932Z,17.65
2018-10-06T18:00:02.946Z,17.52
2018-10-06T18:02:32.342Z,17.40
2018-10-06T18:05:00.997Z,17.44
2018-10-06T18:07:29.606Z,17.43
2018-10-06T18:09:58.273Z,17.45
2018-10-06T18:12:27.983Z,17.44
2018-10-06T18:14:56.459Z,17.41
2018-10-06T18:17:25.057Z,17.47
2018-10-06T18:19:53.634Z,17.47
2018-10-06T18:22:22.291Z,17.54
2018-10-06T18:24:50.957Z,17.44
2018-10-06T18:27:19.648Z,17.46
2018-10-06T18:29:49.089Z,17.73
2018-10-06T18:32:17.773Z,18.01
2018-10-06T18:34:46.406Z,18.05
2018-10-06T18:37:14.969Z,17.88
2018-10-06T18:39:43.570Z,17.81
2018-10-06T18:42:12.168Z,17.64
2018-10-06T18:44:40.735Z,17.46
2018-10-06T18:47:09.353Z,17.29
2018-10-06T18:49:37.970Z,17.19
2018-10-06T18:52:06.601Z,17.10
2018-10-06T18:54:35.175Z,17.21
2018-10-06T18:57:04.337Z,17.32
2018-10-06T18:59:32.864Z,17.31
2018-10-06T19:02:01.436Z,17.25
2018-10-06T19:04:30.064Z,17.11
2018-10-06T19:06:59.327Z,17.00
2018-10-06T19:09:28.091Z,17.01
2018-10-06T19:11:56.698Z,17.12
2018-10-06T19:14:25.483Z,17.14
2018-10-06T19:16:54.139Z,17.03
2018-10-06T19:19:22.956Z,16.89
2018-10-06T19:21:51.656Z,16.83
2018-10-06T19:24:20.232Z,16.89
2018-10-06T19:26:48.980Z,17.02
2018-10-06T19:29:17.944Z,16.83
2018-10-06T19:31:46.542Z,16.65
2018-10-06T19:34:15.144Z,16.57
2018-10-06T19:36:43.736Z,16.27
2018-10-06T19:39:12.371Z,16.07
2018-10-06T19:41:40.954Z,15.96
2018-10-06T19:44:09.577Z,15.82
2018-10-06T19:46:38.184Z,15.69
2018-10-06T19:49:06.902Z,15.61
2018-10-06T19:51:35.648Z,15.54
2018-10-06T19:54:04.855Z,15.48
2018-10-06T19:56:33.618Z,15.44
2018-10-06T19:59:02.184Z,15.44
2018-10-06T20:01:30.813Z,15.38
2018-10-06T20:06:39.963Z,15.29
2018-10-06T20:09:09.921Z,15.29
2018-10-06T20:11:38.887Z,15.27
2018-10-06T20:14:07.514Z,15.23
2018-10-06T20:16:36.299Z,15.23
2018-10-06T20:19:05.178Z,15.21
2018-10-06T20:21:33.723Z,15.13
2018-10-06T20:24:02.291Z,15.25
2018-10-06T20:26:30.900Z,15.31
2018-10-06T20:28:59.479Z,15.37
2018-10-06T20:31:28.087Z,15.33
2018-10-06T20:33:56.662Z,15.32
2018-10-06T20:36:25.212Z,15.45
2018-10-06T20:38:53.731Z,15.40
2018-10-06T20:41:22.290Z,15.26
2018-10-06T20:43:50.813Z,15.30
2018-10-06T20:46:19.478Z,15.44
2018-10-06T20:48:48.196Z,15.51
2018-10-06T20:51:16.884Z,15.67
2018-10-06T20:53:45.468Z,15.76
2018-10-06T20:56:14.132Z,15.95
2018-10-06T20:58:42.806Z,16.16
2018-10-06T21:01:11.452Z,16.23
2018-10-06T21:03:40.332Z,16.29
2018-10-06T21:06:09.622Z,16.45
2018-10-06T21:08:38.306Z,16.56
2018-10-06T21:11:07.036Z,16.67
2018-10-06T21:13:35.902Z,16.82
2018-10-06T21:16:04.601Z,16.96
2018-10-06T21:18:33.238Z,17.03
2018-10-06T21:21:02.193Z,17.13
2018-10-06T21:23:30.934Z,17.18
2018-10-06T21:25:59.482Z,17.15
2018-10-06T21:28:28.095Z,17.07
2018-10-06T21:30:56.663Z,17.14
2018-10-06T21:33:25.236Z,17.22
2018-10-06T21:35:53.874Z,17.32
2018-10-06T21:38:22.424Z,17.31
2018-10-06T21:40:50.998Z,17.36
2018-10-06T21:43:19.620Z,17.31
2018-10-06T21:45:48.286Z,17.31
2018-10-06T21:48:17.553Z,17.35
2018-10-06T21:50:46.316Z,17.31
2018-10-06T21:53:14.915Z,17.23
2018-10-06T21:55:43.591Z,17.16
2018-10-06T21:58:12.211Z,17.13
2018-10-06T22:00:40.836Z,17.09
2018-10-06T22:03:09.441Z,16.98
2018-10-06T22:05:38.016Z,16.94
2018-10-06T22:08:07.043Z,16.87
2018-10-06T22:10:35.821Z,16.73
2018-10-06T22:13:04.747Z,16.47
2018-10-06T22:15:34.426Z,16.31
2018-10-06T22:18:04.021Z,16.11
2018-10-06T22:20:32.610Z,15.93
2018-10-06T22:23:01.448Z,15.83
2018-10-06T22:25:30.061Z,15.82
2018-10-06T22:27:58.795Z,15.76
2018-10-06T22:30:27.856Z,15.67
2018-10-06T22:32:56.609Z,15.56
2018-10-06T22:35:25.341Z,15.62
2018-10-06T22:37:54.253Z,15.51
2018-10-06T22:40:23.105Z,15.45
2018-10-06T22:42:52.259Z,15.39
2018-10-06T22:45:21.005Z,15.42
2018-10-06T22:47:50.201Z,15.45
2018-10-06T22:50:18.781Z,15.48
2018-10-06T22:52:48.401Z,15.45
2018-10-06T22:55:17.141Z,15.62
2018-10-06T22:57:45.766Z,15.74
2018-10-06T23:00:14.369Z,15.81
2018-10-06T23:02:43.036Z,15.82
2018-10-06T23:05:12.301Z,15.80
2018-10-06T23:07:40.822Z,15.84
2018-10-06T23:10:10.319Z,15.81
2018-10-06T23:12:39.021Z,15.92
2018-10-06T23:15:07.943Z,16.06
2018-10-06T23:17:37.348Z,16.06
2018-10-06T23:20:06.439Z,16.07
2018-10-06T23:22:35.145Z,16.08
2018-10-06T23:25:03.970Z,15.95
2018-10-06T23:27:33.278Z,15.86
2018-10-06T23:30:02.140Z,15.88
2018-10-06T23:32:31.255Z,15.90
2018-10-06T23:35:00.042Z,15.94
2018-10-06T23:37:30.090Z,15.98
2018-10-06T23:39:59.435Z,16.06
2018-10-06T23:42:28.909Z,16.13
2018-10-06T23:44:58.117Z,16.15
2018-10-06T23:47:26.769Z,16.15
2018-10-06T23:49:56.098Z,16.00
2018-10-06T23:52:25.500Z,15.89
2018-10-06T23:54:54.090Z,15.94
2018-10-06T23:57:22.702Z,15.99
2018-10-06T23:59:51.466Z,16.08
